createdAt,value
2016-12-15T00:08:17.129Z,281.3
2016-12-15T00:19:16.904Z,281.1
2016-12-15T00:30:17.665Z,280.5
2016-12-15T00:41:17.037Z,280.8
2016-12-15T00:52:16.882Z,280.5
2016-12-15T01:03:17.312Z,279.9
2016-12-15T01:14:17.715Z,280.5
2016-12-15T01:25:18.077Z,280.1
2016-12-15T01:36:17.183Z,280.1
2016-12-15T01:47:16.897Z,280.2
2016-12-15T01:58:17.042Z,280.5
2016-12-15T02:09:17.608Z,280.2
2016-12-15T02:20:17.180Z,280.3
2016-12-15T02:31:17.330Z,280.1
2016-12-15T02:42:17.218Z,280.8
2016-12-15T02:53:17.501Z,280.7
2016-12-15T03:04:17.247Z,280.7
2016-12-15T03:15:17.633Z,280.3
2016-12-15T03:26:16.883Z,280.8
2016-12-15T03:37:17.620Z,280.3
2016-12-15T03:48:17.760Z,280.4
2016-12-15T03:59:17.843Z,280.2
2016-12-15T04:10:17.203Z,280.5
2016-12-15T04:21:17.400Z,280.1
2016-12-15T04:32:17.488Z,280.2
2016-12-15T04:43:17.632Z,280
2016-12-15T04:54:17.867Z,280.3
2016-12-15T05:05:17.227Z,280.2
2016-12-15T05:16:17.255Z,280.2
2016-12-15T05:27:18.010Z,280.2
2016-12-15T05:38:17.739Z,280.1
2016-12-15T05:49:17.620Z,280.1
2016-12-15T06:00:17.570Z,280.2
2016-12-15T06:11:17.684Z,280.4
2016-12-15T06:22:17.382Z,280.3
2016-12-15T06:33:17.479Z,279.8
2016-12-15T06:44:17.367Z,280.4
2016-12-15T06:55:16.845Z,279.6
2016-12-15T07:06:17.657Z,279.7
2016-12-15T07:17:17.088Z,280
2016-12-15T07:28:16.813Z,280
2016-12-15T07:39:17.618Z,279.8
2016-12-15T07:50:17.765Z,279.6
2016-12-15T08:01:17.714Z,279.8
2016-12-15T08:12:17.521Z,280.1
2016-12-15T08:23:17.164Z,280.5
2016-12-15T08:34:18.489Z,280.3
2016-12-15T08:45:18.080Z,280.3
2016-12-15T08:56:18.428Z,280.4
2016-12-15T09:07:17.662Z,280.2
2016-12-15T09:18:16.892Z,280.4
2016-12-15T09:29:17.797Z,280.8
2016-12-15T09:40:18.003Z,280.4
2016-12-15T09:51:17.761Z,280.5
2016-12-15T10:02:17.474Z,280.9
2016-12-15T10:13:17.019Z,280.3
2016-12-15T10:24:17.536Z,280.7
2016-12-15T10:35:17.512Z,281.2
2016-12-15T10:46:17.859Z,280.9
2016-12-15T10:57:17.258Z,281.2
2016-12-15T11:08:17.482Z,281.1
2016-12-15T11:19:17.781Z,281.2
2016-12-15T11:30:17.550Z,281.1
2016-12-15T11:41:17.446Z,280.5
2016-12-15T11:52:16.873Z,280.9
2016-12-15T12:03:17.079Z,280.8
2016-12-15T12:14:17.828Z,281
2016-12-15T12:25:17.965Z,280.9
2016-12-15T12:36:17.174Z,280.9
2016-12-15T12:47:17.114Z,280.5
2016-12-15T12:58:17.061Z,280.8
2016-12-15T13:09:17.737Z,280.9
2016-12-15T13:20:17.317Z,280.9
2016-12-15T13:31:17.932Z,281.1
2016-12-15T13:42:16.812Z,280.8
2016-12-15T13:53:17.936Z,280.7
2016-12-15T14:04:17.255Z,280.9
2016-12-15T14:15:17.526Z,280.7
2016-12-15T14:26:17.260Z,280.8
2016-12-15T14:37:17.190Z,280.9
2016-12-15T14:48:18.322Z,280.1
2016-12-15T14:59:17.357Z,279.8
2016-12-15T15:10:17.486Z,280.5
2016-12-15T15:21:17.359Z,280.3
2016-12-15T15:32:17.561Z,280.3
2016-12-15T15:43:17.156Z,279.9
2016-12-15T15:54:16.881Z,280.3
2016-12-15T16:05:16.966Z,280
2016-12-15T16:16:17.700Z,280
2016-12-15T16:27:17.568Z,280.1
2016-12-15T16:38:17.854Z,280
2016-12-15T16:49:17.357Z,280.1
2016-12-15T17:00:17.795Z,278.7
2016-12-15T17:11:18.100Z,279.8
2016-12-15T17:22:16.802Z,276.6
2016-12-15T17:33:17.518Z,279.2
2016-12-15T17:44:17.531Z,278.3
2016-12-15T17:55:17.068Z,279.2
2016-12-15T18:06:17.591Z,276.9
2016-12-15T18:17:17.838Z,278.3
2016-12-15T18:28:17.343Z,277.2
2016-12-15T18:39:17.725Z,278.6
2016-12-15T18:50:17.381Z,278.7
2016-12-15T19:01:17.156Z,277.3
2016-12-15T19:12:17.336Z,277.2
2016-12-15T19:23:18.092Z,277.5
2016-12-15T19:34:17.198Z,276.9
2016-12-15T19:45:19.185Z,277
2016-12-15T19:56:18.080Z,278.4
2016-12-15T20:07:17.842Z,276.3
2016-12-15T20:18:17.661Z,278.4
2016-12-15T20:29:17.597Z,277.2
2016-12-15T20:40:17.880Z,278.3
2016-12-15T20:51:18.087Z,278.8
2016-12-15T21:02:16.845Z,277.9
2016-12-15T21:13:17.845Z,277.4
2016-12-15T21:24:16.972Z,277.9
2016-12-15T21:35:17.978Z,277.2
2016-12-15T21:46:17.497Z,277.2
2016-12-15T21:57:17.213Z,277.1
2016-12-15T22:08:17.752Z,277.4
2016-12-15T22:19:17.608Z,277.7
2016-12-15T22:30:18.242Z,276.4
2016-12-15T22:41:17.271Z,277.3
2016-12-15T22:52:17.939Z,276.5
2016-12-15T23:03:17.722Z,276.7
2016-12-15T23:14:18.023Z,277.2
2016-12-15T23:25:17.613Z,276.9
2016-12-15T23:36:17.523Z,276.6
2016-12-15T23:47:17.062Z,277.2
2016-12-15T23:58:17.572Z,277.5
